sensor_id;sensor_type;location;lat;lon;timestamp;P1;durP1;ratioP1;P2;durP2;ratioP2
14066;SDS011;7108;42.684;23.350;2023-02-11T00:01:35;177.20;;;71.93;;
14066;SDS011;7108;42.684;23.350;2023-02-11T00:04:02;167.50;;;72.03;;
14066;SDS011;7108;42.684;23.350;2023-02-11T00:06:29;174.35;;;72.93;;
14066;SDS011;7108;42.684;23.350;2023-02-11T00:08:56;184.80;;;79.15;;
14066;SDS011;7108;42.684;23.350;2023-02-11T00:11:23;195.20;;;75.60;;
14066;SDS011;7108;42.684;23.350;2023-02-11T00:13:50;192.63;;;74.85;;
14066;SDS011;7108;42.684;23.350;2023-02-11T00:16:17;202.83;;;76.33;;
14066;SDS011;7108;42.684;23.350;2023-02-11T00:18:43;191.68;;;75.47;;
14066;SDS011;7108;42.684;23.350;2023-02-11T00:21:11;186.97;;;73.27;;
14066;SDS011;7108;42.684;23.350;2023-02-11T00:23:37;194.70;;;75.78;;
14066;SDS011;7108;42.684;23.350;2023-02-11T00:26:03;168.93;;;73.13;;
14066;SDS011;7108;42.684;23.350;2023-02-11T00:28:29;175.87;;;71.73;;
14066;SDS011;7108;42.684;23.350;2023-02-11T00:30:59;185.93;;;73.38;;
14066;SDS011;7108;42.684;23.350;2023-02-11T00:33:26;174.00;;;71.70;;
14066;SDS011;7108;42.684;23.350;2023-02-11T00:35:54;193.82;;;73.22;;
14066;SDS011;7108;42.684;23.350;2023-02-11T00:38:19;190.27;;;73.37;;
14066;SDS011;7108;42.684;23.350;2023-02-11T00:40:45;199.00;;;74.97;;
14066;SDS011;7108;42.684;23.350;2023-02-11T00:43:13;189.30;;;72.13;;
14066;SDS011;7108;42.684;23.350;2023-02-11T00:45:38;166.13;;;69.65;;
14066;SDS011;7108;42.684;23.350;2023-02-11T00:48:04;161.57;;;71.03;;
14066;SDS011;7108;42.684;23.350;2023-02-11T00:50:29;171.20;;;71.17;;
14066;SDS011;7108;42.684;23.350;2023-02-11T00:52:55;196.03;;;77.17;;
14066;SDS011;7108;42.684;23.350;2023-02-11T00:55:20;186.77;;;76.60;;
14066;SDS011;7108;42.684;23.350;2023-02-11T00:57:46;186.93;;;74.03;;
14066;SDS011;7108;42.684;23.350;2023-02-11T01:00:12;188.63;;;75.10;;
14066;SDS011;7108;42.684;23.350;2023-02-11T01:02:38;161.75;;;71.60;;
14066;SDS011;7108;42.684;23.350;2023-02-11T01:05:04;173.20;;;72.07;;
14066;SDS011;7108;42.684;23.350;2023-02-11T01:07:30;166.15;;;71.80;;
14066;SDS011;7108;42.684;23.350;2023-02-11T01:09:58;169.95;;;71.38;;
14066;SDS011;7108;42.684;23.350;2023-02-11T01:12:26;168.88;;;70.93;;
14066;SDS011;7108;42.684;23.350;2023-02-11T01:15:00;185.98;;;72.90;;
14066;SDS011;7108;42.684;23.350;2023-02-11T01:17:25;181.02;;;74.15;;
14066;SDS011;7108;42.684;23.350;2023-02-11T01:19:57;180.43;;;74.13;;
14066;SDS011;7108;42.684;23.350;2023-02-11T01:22:25;178.32;;;72.68;;
14066;SDS011;7108;42.684;23.350;2023-02-11T01:24:54;185.43;;;72.95;;
14066;SDS011;7108;42.684;23.350;2023-02-11T01:27:19;176.43;;;73.63;;
14066;SDS011;7108;42.684;23.350;2023-02-11T01:29:47;188.23;;;72.97;;
14066;SDS011;7108;42.684;23.350;2023-02-11T01:32:13;192.77;;;75.80;;
14066;SDS011;7108;42.684;23.350;2023-02-11T01:34:38;166.93;;;72.07;;
14066;SDS011;7108;42.684;23.350;2023-02-11T01:37:06;175.90;;;72.90;;
14066;SDS011;7108;42.684;23.350;2023-02-11T01:39:37;178.30;;;73.65;;
14066;SDS011;7108;42.684;23.350;2023-02-11T01:42:06;177.52;;;72.97;;
14066;SDS011;7108;42.684;23.350;2023-02-11T01:44:36;180.63;;;73.57;;
14066;SDS011;7108;42.684;23.350;2023-02-11T01:47:07;177.50;;;72.45;;
14066;SDS011;7108;42.684;23.350;2023-02-11T01:49:35;175.13;;;74.07;;
14066;SDS011;7108;42.684;23.350;2023-02-11T01:52:48;172.85;;;72.05;;
14066;SDS011;7108;42.684;23.350;2023-02-11T01:55:08;166.52;;;70.03;;
14066;SDS011;7108;42.684;23.350;2023-02-11T01:57:57;188.88;;;72.40;;
14066;SDS011;7108;42.684;23.350;2023-02-11T02:00:34;158.20;;;69.90;;
14066;SDS011;7108;42.684;23.350;2023-02-11T02:05:43;189.32;;;75.18;;
14066;SDS011;7108;42.684;23.350;2023-02-11T02:08:20;181.73;;;73.68;;
14066;SDS011;7108;42.684;23.350;2023-02-11T02:10:53;183.18;;;72.57;;
14066;SDS011;7108;42.684;23.350;2023-02-11T02:13:21;177.77;;;75.90;;
14066;SDS011;7108;42.684;23.350;2023-02-11T02:15:50;176.65;;;71.80;;
14066;SDS011;7108;42.684;23.350;2023-02-11T02:21:35;188.13;;;74.03;;
14066;SDS011;7108;42.684;23.350;2023-02-11T02:24:30;175.88;;;73.75;;
14066;SDS011;7108;42.684;23.350;2023-02-11T02:40:35;166.52;;;71.43;;
14066;SDS011;7108;42.684;23.350;2023-02-11T02:43:07;171.85;;;71.60;;
14066;SDS011;7108;42.684;23.350;2023-02-11T02:45:37;166.45;;;73.25;;
14066;SDS011;7108;42.684;23.350;2023-02-11T02:48:06;170.65;;;72.85;;
14066;SDS011;7108;42.684;23.350;2023-02-11T02:50:32;162.80;;;71.10;;
14066;SDS011;7108;42.684;23.350;2023-02-11T03:01:37;165.95;;;71.28;;
14066;SDS011;7108;42.684;23.350;2023-02-11T03:07:11;174.35;;;71.25;;
14066;SDS011;7108;42.684;23.350;2023-02-11T03:10:05;193.27;;;75.90;;
14066;SDS011;7108;42.684;23.350;2023-02-11T03:12:36;162.02;;;72.70;;
14066;SDS011;7108;42.684;23.350;2023-02-11T03:15:04;178.63;;;74.32;;
14066;SDS011;7108;42.684;23.350;2023-02-11T03:17:30;161.40;;;72.20;;
14066;SDS011;7108;42.684;23.350;2023-02-11T03:20:02;164.63;;;71.20;;
14066;SDS011;7108;42.684;23.350;2023-02-11T03:22:36;161.68;;;72.60;;
14066;SDS011;7108;42.684;23.350;2023-02-11T03:25:05;178.10;;;74.75;;
14066;SDS011;7108;42.684;23.350;2023-02-11T03:27:32;171.90;;;75.03;;
14066;SDS011;7108;42.684;23.350;2023-02-11T03:32:55;170.50;;;73.15;;
14066;SDS011;7108;42.684;23.350;2023-02-11T03:35:26;170.90;;;72.57;;
14066;SDS011;7108;42.684;23.350;2023-02-11T03:37:59;158.43;;;69.70;;
14066;SDS011;7108;42.684;23.350;2023-02-11T03:40:30;156.73;;;71.10;;
14066;SDS011;7108;42.684;23.350;2023-02-11T03:43:10;168.35;;;72.85;;
14066;SDS011;7108;42.684;23.350;2023-02-11T03:45:41;158.50;;;71.28;;
14066;SDS011;7108;42.684;23.350;2023-02-11T03:48:13;162.70;;;72.07;;
14066;SDS011;7108;42.684;23.350;2023-02-11T03:50:43;185.73;;;74.90;;
14066;SDS011;7108;42.684;23.350;2023-02-11T03:53:11;175.40;;;73.35;;
14066;SDS011;7108;42.684;23.350;2023-02-11T03:55:38;171.10;;;72.43;;
14066;SDS011;7108;42.684;23.350;2023-02-11T03:58:05;170.95;;;73.70;;
14066;SDS011;7108;42.684;23.350;2023-02-11T04:00:34;172.27;;;72.93;;
14066;SDS011;7108;42.684;23.350;2023-02-11T04:03:03;157.23;;;71.20;;
14066;SDS011;7108;42.684;23.350;2023-02-11T04:05:29;176.97;;;76.50;;
14066;SDS011;7108;42.684;23.350;2023-02-11T04:07:55;187.37;;;74.33;;
14066;SDS011;7108;42.684;23.350;2023-02-11T04:10:23;176.75;;;71.35;;
14066;SDS011;7108;42.684;23.350;2023-02-11T04:12:49;184.80;;;75.87;;
14066;SDS011;7108;42.684;23.350;2023-02-11T04:15:14;174.40;;;73.07;;
14066;SDS011;7108;42.684;23.350;2023-02-11T04:17:40;162.17;;;71.47;;
14066;SDS011;7108;42.684;23.350;2023-02-11T04:20:06;164.37;;;71.57;;
14066;SDS011;7108;42.684;23.350;2023-02-11T04:22:32;157.95;;;70.30;;
14066;SDS011;7108;42.684;23.350;2023-02-11T04:24:58;169.67;;;70.53;;
14066;SDS011;7108;42.684;23.350;2023-02-11T04:27:23;174.83;;;75.03;;
14066;SDS011;7108;42.684;23.350;2023-02-11T04:29:52;172.93;;;72.18;;
14066;SDS011;7108;42.684;23.350;2023-02-11T04:32:18;169.45;;;71.03;;
14066;SDS011;7108;42.684;23.350;2023-02-11T04:34:43;173.30;;;73.57;;
14066;SDS011;7108;42.684;23.350;2023-02-11T04:37:09;170.30;;;73.03;;
14066;SDS011;7108;42.684;23.350;2023-02-11T04:39:37;172.73;;;74.40;;
14066;SDS011;7108;42.684;23.350;2023-02-11T04:42:02;159.57;;;71.97;;
14066;SDS011;7108;42.684;23.350;2023-02-11T04:44:28;150.87;;;70.80;;
14066;SDS011;7108;42.684;23.350;2023-02-11T04:46:54;177.40;;;74.77;;
14066;SDS011;7108;42.684;23.350;2023-02-11T04:49:20;184.18;;;76.97;;
14066;SDS011;7108;42.684;23.350;2023-02-11T04:51:45;173.80;;;73.70;;
14066;SDS011;7108;42.684;23.350;2023-02-11T04:54:11;167.47;;;70.70;;
14066;SDS011;7108;42.684;23.350;2023-02-11T04:56:37;165.23;;;73.18;;
14066;SDS011;7108;42.684;23.350;2023-02-11T04:59:03;170.73;;;74.45;;
14066;SDS011;7108;42.684;23.350;2023-02-11T05:01:30;158.48;;;73.15;;
14066;SDS011;7108;42.684;23.350;2023-02-11T05:03:56;177.17;;;73.60;;
14066;SDS011;7108;42.684;23.350;2023-02-11T05:06:22;174.33;;;72.23;;
14066;SDS011;7108;42.684;23.350;2023-02-11T05:08:47;169.03;;;74.60;;
14066;SDS011;7108;42.684;23.350;2023-02-11T05:11:17;159.02;;;70.97;;
14066;SDS011;7108;42.684;23.350;2023-02-11T05:13:45;170.10;;;73.20;;
14066;SDS011;7108;42.684;23.350;2023-02-11T05:16:11;157.95;;;70.22;;
14066;SDS011;7108;42.684;23.350;2023-02-11T05:18:37;165.55;;;72.28;;
14066;SDS011;7108;42.684;23.350;2023-02-11T05:21:07;176.02;;;76.80;;
14066;SDS011;7108;42.684;23.350;2023-02-11T05:23:34;163.88;;;73.07;;
14066;SDS011;7108;42.684;23.350;2023-02-11T05:26:00;165.00;;;71.00;;
14066;SDS011;7108;42.684;23.350;2023-02-11T05:28:26;160.23;;;71.45;;
14066;SDS011;7108;42.684;23.350;2023-02-11T05:30:52;177.53;;;73.47;;
14066;SDS011;7108;42.684;23.350;2023-02-11T05:33:17;191.03;;;77.43;;
14066;SDS011;7108;42.684;23.350;2023-02-11T05:35:43;182.37;;;74.50;;
14066;SDS011;7108;42.684;23.350;2023-02-11T05:38:08;159.90;;;73.47;;
14066;SDS011;7108;42.684;23.350;2023-02-11T05:40:33;148.37;;;72.53;;
14066;SDS011;7108;42.684;23.350;2023-02-11T05:42:59;174.00;;;72.47;;
14066;SDS011;7108;42.684;23.350;2023-02-11T05:45:27;148.57;;;69.80;;
14066;SDS011;7108;42.684;23.350;2023-02-11T05:47:53;182.40;;;74.27;;
14066;SDS011;7108;42.684;23.350;2023-02-11T05:50:18;169.83;;;73.03;;
14066;SDS011;7108;42.684;23.350;2023-02-11T05:52:44;169.57;;;72.83;;
14066;SDS011;7108;42.684;23.350;2023-02-11T05:55:09;168.30;;;71.50;;
14066;SDS011;7108;42.684;23.350;2023-02-11T05:57:35;160.57;;;70.00;;
14066;SDS011;7108;42.684;23.350;2023-02-11T06:00:03;159.00;;;70.37;;
14066;SDS011;7108;42.684;23.350;2023-02-11T06:02:29;153.50;;;71.15;;
14066;SDS011;7108;42.684;23.350;2023-02-11T06:04:54;183.90;;;78.23;;
14066;SDS011;7108;42.684;23.350;2023-02-11T06:07:22;166.48;;;70.28;;
14066;SDS011;7108;42.684;23.350;2023-02-11T06:09:56;161.77;;;70.30;;
14066;SDS011;7108;42.684;23.350;2023-02-11T06:12:24;164.88;;;72.25;;
14066;SDS011;7108;42.684;23.350;2023-02-11T06:14:50;173.80;;;74.40;;
14066;SDS011;7108;42.684;23.350;2023-02-11T06:17:16;183.93;;;73.73;;
14066;SDS011;7108;42.684;23.350;2023-02-11T06:19:44;174.67;;;72.53;;
14066;SDS011;7108;42.684;23.350;2023-02-11T06:22:09;166.25;;;71.55;;
14066;SDS011;7108;42.684;23.350;2023-02-11T06:24:35;206.43;;;141.07;;
14066;SDS011;7108;42.684;23.350;2023-02-11T06:27:02;179.02;;;83.82;;
14066;SDS011;7108;42.684;23.350;2023-02-11T06:29:33;183.90;;;86.55;;
14066;SDS011;7108;42.684;23.350;2023-02-11T06:32:02;181.50;;;72.70;;
14066;SDS011;7108;42.684;23.350;2023-02-11T06:34:27;209.10;;;104.50;;
14066;SDS011;7108;42.684;23.350;2023-02-11T06:36:53;187.63;;;84.57;;
14066;SDS011;7108;42.684;23.350;2023-02-11T06:39:21;187.13;;;78.05;;
14066;SDS011;7108;42.684;23.350;2023-02-11T06:41:47;185.77;;;78.40;;
14066;SDS011;7108;42.684;23.350;2023-02-11T06:44:12;188.57;;;77.30;;
14066;SDS011;7108;42.684;23.350;2023-02-11T06:46:40;171.25;;;71.97;;
14066;SDS011;7108;42.684;23.350;2023-02-11T06:49:06;195.57;;;76.03;;
14066;SDS011;7108;42.684;23.350;2023-02-11T06:51:31;183.90;;;73.93;;
14066;SDS011;7108;42.684;23.350;2023-02-11T06:53:57;164.33;;;72.73;;
14066;SDS011;7108;42.684;23.350;2023-02-11T06:56:22;185.57;;;77.13;;
14066;SDS011;7108;42.684;23.350;2023-02-11T06:58:52;214.77;;;81.15;;
14066;SDS011;7108;42.684;23.350;2023-02-11T07:01:19;208.88;;;79.57;;
14066;SDS011;7108;42.684;23.350;2023-02-11T07:03:46;219.88;;;82.15;;
14066;SDS011;7108;42.684;23.350;2023-02-11T07:06:18;220.17;;;79.67;;
14066;SDS011;7108;42.684;23.350;2023-02-11T07:08:45;222.88;;;82.10;;
14066;SDS011;7108;42.684;23.350;2023-02-11T07:11:15;215.03;;;79.30;;
14066;SDS011;7108;42.684;23.350;2023-02-11T07:13:44;191.90;;;98.50;;
14066;SDS011;7108;42.684;23.350;2023-02-11T07:16:18;265.35;;;137.23;;
14066;SDS011;7108;42.684;23.350;2023-02-11T07:18:44;237.20;;;108.13;;
14066;SDS011;7108;42.684;23.350;2023-02-11T07:21:14;232.48;;;82.45;;
14066;SDS011;7108;42.684;23.350;2023-02-11T07:23:42;227.43;;;84.03;;
14066;SDS011;7108;42.684;23.350;2023-02-11T07:26:12;231.45;;;81.95;;
14066;SDS011;7108;42.684;23.350;2023-02-11T07:28:40;186.93;;;74.25;;
14066;SDS011;7108;42.684;23.350;2023-02-11T07:31:25;215.10;;;78.05;;
14066;SDS011;7108;42.684;23.350;2023-02-11T07:33:57;226.40;;;79.22;;
14066;SDS011;7108;42.684;23.350;2023-02-11T07:36:25;220.00;;;78.35;;
14066;SDS011;7108;42.684;23.350;2023-02-11T07:38:51;201.90;;;74.80;;
14066;SDS011;7108;42.684;23.350;2023-02-11T07:41:18;210.67;;;75.20;;
14066;SDS011;7108;42.684;23.350;2023-02-11T07:43:46;228.80;;;76.85;;
14066;SDS011;7108;42.684;23.350;2023-02-11T07:46:21;211.55;;;75.82;;
14066;SDS011;7108;42.684;23.350;2023-02-11T07:48:49;217.40;;;74.85;;
14066;SDS011;7108;42.684;23.350;2023-02-11T07:51:16;220.37;;;75.57;;
14066;SDS011;7108;42.684;23.350;2023-02-11T07:53:49;185.43;;;71.28;;
14066;SDS011;7108;42.684;23.350;2023-02-11T07:56:18;225.43;;;76.57;;
14066;SDS011;7108;42.684;23.350;2023-02-11T07:58:44;217.02;;;76.40;;
14066;SDS011;7108;42.684;23.350;2023-02-11T08:01:11;229.00;;;76.07;;
14066;SDS011;7108;42.684;23.350;2023-02-11T08:03:39;221.30;;;74.90;;
14066;SDS011;7108;42.684;23.350;2023-02-11T08:06:07;242.07;;;79.88;;
14066;SDS011;7108;42.684;23.350;2023-02-11T08:08:35;221.40;;;75.55;;
14066;SDS011;7108;42.684;23.350;2023-02-11T08:13:45;225.40;;;77.72;;
14066;SDS011;7108;42.684;23.350;2023-02-11T08:16:25;212.15;;;76.50;;
14066;SDS011;7108;42.684;23.350;2023-02-11T08:18:58;223.82;;;75.90;;
14066;SDS011;7108;42.684;23.350;2023-02-11T08:21:27;234.43;;;80.07;;
14066;SDS011;7108;42.684;23.350;2023-02-11T08:23:56;216.15;;;76.25;;
14066;SDS011;7108;42.684;23.350;2023-02-11T08:26:26;227.88;;;80.40;;
14066;SDS011;7108;42.684;23.350;2023-02-11T08:28:54;209.80;;;75.25;;
14066;SDS011;7108;42.684;23.350;2023-02-11T08:31:25;214.55;;;77.63;;
14066;SDS011;7108;42.684;23.350;2023-02-11T08:34:12;223.60;;;80.72;;
14066;SDS011;7108;42.684;23.350;2023-02-11T08:36:47;213.15;;;79.90;;
14066;SDS011;7108;42.684;23.350;2023-02-11T08:39:20;219.32;;;77.32;;
14066;SDS011;7108;42.684;23.350;2023-02-11T08:41:50;229.18;;;82.13;;
14066;SDS011;7108;42.684;23.350;2023-02-11T08:44:20;237.30;;;81.57;;
14066;SDS011;7108;42.684;23.350;2023-02-11T08:46:47;208.70;;;76.68;;
14066;SDS011;7108;42.684;23.350;2023-02-11T08:49:13;230.98;;;81.72;;
14066;SDS011;7108;42.684;23.350;2023-02-11T08:51:39;214.05;;;79.80;;
14066;SDS011;7108;42.684;23.350;2023-02-11T08:54:04;210.17;;;75.83;;
14066;SDS011;7108;42.684;23.350;2023-02-11T08:56:33;222.23;;;78.97;;
14066;SDS011;7108;42.684;23.350;2023-02-11T08:59:02;201.85;;;76.72;;
14066;SDS011;7108;42.684;23.350;2023-02-11T09:01:41;215.10;;;75.93;;
14066;SDS011;7108;42.684;23.350;2023-02-11T09:04:08;236.43;;;82.10;;
14066;SDS011;7108;42.684;23.350;2023-02-11T09:06:37;219.95;;;82.82;;
14066;SDS011;7108;42.684;23.350;2023-02-11T09:09:02;228.47;;;83.43;;
14066;SDS011;7108;42.684;23.350;2023-02-11T09:11:30;213.07;;;81.60;;
14066;SDS011;7108;42.684;23.350;2023-02-11T09:13:57;217.95;;;78.22;;
14066;SDS011;7108;42.684;23.350;2023-02-11T09:16:25;226.50;;;81.15;;
14066;SDS011;7108;42.684;23.350;2023-02-11T09:18:52;222.98;;;78.15;;
14066;SDS011;7108;42.684;23.350;2023-02-11T09:21:22;225.00;;;80.32;;
14066;SDS011;7108;42.684;23.350;2023-02-11T09:23:50;232.52;;;79.30;;
14066;SDS011;7108;42.684;23.350;2023-02-11T09:26:18;231.67;;;80.20;;
14066;SDS011;7108;42.684;23.350;2023-02-11T09:28:46;233.77;;;81.30;;
14066;SDS011;7108;42.684;23.350;2023-02-11T09:31:13;188.90;;;73.13;;
14066;SDS011;7108;42.684;23.350;2023-02-11T09:33:42;201.32;;;75.32;;
14066;SDS011;7108;42.684;23.350;2023-02-11T09:36:12;193.15;;;72.97;;
14066;SDS011;7108;42.684;23.350;2023-02-11T09:38:40;188.35;;;76.63;;
14066;SDS011;7108;42.684;23.350;2023-02-11T09:41:12;201.87;;;76.70;;
14066;SDS011;7108;42.684;23.350;2023-02-11T09:43:43;194.77;;;72.78;;
14066;SDS011;7108;42.684;23.350;2023-02-11T09:46:12;196.45;;;73.90;;
14066;SDS011;7108;42.684;23.350;2023-02-11T09:48:40;191.85;;;73.40;;
14066;SDS011;7108;42.684;23.350;2023-02-11T09:51:18;218.85;;;77.82;;
14066;SDS011;7108;42.684;23.350;2023-02-11T09:53:51;203.93;;;77.03;;
14066;SDS011;7108;42.684;23.350;2023-02-11T09:56:21;196.15;;;75.50;;
14066;SDS011;7108;42.684;23.350;2023-02-11T09:58:49;202.57;;;76.85;;
14066;SDS011;7108;42.684;23.350;2023-02-11T10:10:06;218.02;;;76.22;;
14066;SDS011;7108;42.684;23.350;2023-02-11T10:14:59;196.02;;;72.45;;
14066;SDS011;7108;42.684;23.350;2023-02-11T10:22:58;206.68;;;74.63;;
14066;SDS011;7108;42.684;23.350;2023-02-11T10:25:28;183.98;;;72.80;;
14066;SDS011;7108;42.684;23.350;2023-02-11T10:28:00;191.75;;;72.70;;
14066;SDS011;7108;42.684;23.350;2023-02-11T10:36:13;202.75;;;75.32;;
14066;SDS011;7108;42.684;23.350;2023-02-11T10:38:41;217.43;;;80.07;;
14066;SDS011;7108;42.684;23.350;2023-02-11T10:41:16;203.55;;;76.38;;
14066;SDS011;7108;42.684;23.350;2023-02-11T10:43:44;200.35;;;74.10;;
14066;SDS011;7108;42.684;23.350;2023-02-11T10:46:13;182.90;;;70.90;;
14066;SDS011;7108;42.684;23.350;2023-02-11T10:53:46;212.95;;;74.13;;
14066;SDS011;7108;42.684;23.350;2023-02-11T10:56:18;209.10;;;75.43;;
14066;SDS011;7108;42.684;23.350;2023-02-11T11:01:21;199.18;;;73.03;;
14066;SDS011;7108;42.684;23.350;2023-02-11T11:03:50;224.17;;;75.87;;
14066;SDS011;7108;42.684;23.350;2023-02-11T11:06:28;191.57;;;71.05;;
14066;SDS011;7108;42.684;23.350;2023-02-11T11:08:55;200.07;;;73.90;;
14066;SDS011;7108;42.684;23.350;2023-02-11T11:11:22;208.60;;;73.33;;
14066;SDS011;7108;42.684;23.350;2023-02-11T11:16:27;201.50;;;72.20;;
14066;SDS011;7108;42.684;23.350;2023-02-11T11:19:18;227.25;;;78.13;;
14066;SDS011;7108;42.684;23.350;2023-02-11T11:21:45;207.15;;;73.07;;
14066;SDS011;7108;42.684;23.350;2023-02-11T11:24:22;209.10;;;72.65;;
14066;SDS011;7108;42.684;23.350;2023-02-11T11:26:56;198.43;;;72.13;;
14066;SDS011;7108;42.684;23.350;2023-02-11T11:29:37;215.27;;;74.75;;
14066;SDS011;7108;42.684;23.350;2023-02-11T11:32:12;214.07;;;76.25;;
14066;SDS011;7108;42.684;23.350;2023-02-11T11:34:50;210.18;;;73.40;;
14066;SDS011;7108;42.684;23.350;2023-02-11T11:37:27;206.82;;;73.35;;
14066;SDS011;7108;42.684;23.350;2023-02-11T11:39:59;226.63;;;76.80;;
14066;SDS011;7108;42.684;23.350;2023-02-11T11:42:33;202.18;;;73.97;;
14066;SDS011;7108;42.684;23.350;2023-02-11T11:45:01;198.27;;;71.97;;
14066;SDS011;7108;42.684;23.350;2023-02-11T11:48:47;208.63;;;73.28;;
14066;SDS011;7108;42.684;23.350;2023-02-11T11:50:48;208.18;;;73.03;;
14066;SDS011;7108;42.684;23.350;2023-02-11T11:53:23;237.77;;;77.82;;
14066;SDS011;7108;42.684;23.350;2023-02-11T11:56:04;214.18;;;76.05;;
14066;SDS011;7108;42.684;23.350;2023-02-11T11:58:35;204.32;;;74.80;;
14066;SDS011;7108;42.684;23.350;2023-02-11T12:01:16;207.30;;;74.30;;
14066;SDS011;7108;42.684;23.350;2023-02-11T12:12:16;197.23;;;71.07;;
14066;SDS011;7108;42.684;23.350;2023-02-11T12:14:52;213.38;;;72.38;;
14066;SDS011;7108;42.684;23.350;2023-02-11T12:22:56;202.98;;;75.13;;
14066;SDS011;7108;42.684;23.350;2023-02-11T12:33:44;197.10;;;71.95;;
14066;SDS011;7108;42.684;23.350;2023-02-11T12:39:08;238.45;;;86.63;;
14066;SDS011;7108;42.684;23.350;2023-02-11T12:44:58;211.10;;;72.97;;
14066;SDS011;7108;42.684;23.350;2023-02-11T12:56:11;199.35;;;69.78;;
14066;SDS011;7108;42.684;23.350;2023-02-11T12:58:39;212.55;;;74.60;;
14066;SDS011;7108;42.684;23.350;2023-02-11T13:01:14;214.63;;;73.45;;
14066;SDS011;7108;42.684;23.350;2023-02-11T13:03:45;210.68;;;73.07;;
14066;SDS011;7108;42.684;23.350;2023-02-11T13:06:23;221.13;;;79.07;;
14066;SDS011;7108;42.684;23.350;2023-02-11T13:09:01;202.70;;;73.97;;
14066;SDS011;7108;42.684;23.350;2023-02-11T13:11:35;206.77;;;73.10;;
14066;SDS011;7108;42.684;23.350;2023-02-11T13:14:06;207.77;;;73.25;;
14066;SDS011;7108;42.684;23.350;2023-02-11T13:22:30;222.13;;;76.55;;
14066;SDS011;7108;42.684;23.350;2023-02-11T13:27:55;239.40;;;76.18;;
14066;SDS011;7108;42.684;23.350;2023-02-11T13:30:42;265.20;;;79.22;;
14066;SDS011;7108;42.684;23.350;2023-02-11T13:33:16;230.55;;;76.40;;
14066;SDS011;7108;42.684;23.350;2023-02-11T13:35:48;254.75;;;79.28;;
14066;SDS011;7108;42.684;23.350;2023-02-11T13:38:32;223.40;;;77.32;;
14066;SDS011;7108;42.684;23.350;2023-02-11T13:43:28;237.73;;;81.30;;
14066;SDS011;7108;42.684;23.350;2023-02-11T13:46:00;257.70;;;82.90;;
14066;SDS011;7108;42.684;23.350;2023-02-11T13:48:29;248.75;;;79.38;;
14066;SDS011;7108;42.684;23.350;2023-02-11T13:50:56;255.50;;;80.32;;
14066;SDS011;7108;42.684;23.350;2023-02-11T13:53:26;253.90;;;78.03;;
14066;SDS011;7108;42.684;23.350;2023-02-11T13:56:03;226.90;;;75.07;;
14066;SDS011;7108;42.684;23.350;2023-02-11T13:58:49;237.73;;;75.50;;
14066;SDS011;7108;42.684;23.350;2023-02-11T14:04:12;254.68;;;79.57;;
14066;SDS011;7108;42.684;23.350;2023-02-11T14:10:47;244.10;;;75.30;;
14066;SDS011;7108;42.684;23.350;2023-02-11T14:15:50;243.45;;;77.47;;
14066;SDS011;7108;42.684;23.350;2023-02-11T14:21:16;242.85;;;77.03;;
14066;SDS011;7108;42.684;23.350;2023-02-11T14:23:47;242.55;;;76.53;;
14066;SDS011;7108;42.684;23.350;2023-02-11T14:28:48;267.95;;;79.82;;
14066;SDS011;7108;42.684;23.350;2023-02-11T14:31:32;243.30;;;77.78;;
14066;SDS011;7108;42.684;23.350;2023-02-11T14:39:56;236.48;;;74.88;;
14066;SDS011;7108;42.684;23.350;2023-02-11T14:42:27;244.57;;;76.28;;
14066;SDS011;7108;42.684;23.350;2023-02-11T14:44:55;248.90;;;78.38;;
14066;SDS011;7108;42.684;23.350;2023-02-11T14:47:35;225.40;;;75.25;;
14066;SDS011;7108;42.684;23.350;2023-02-11T14:50:12;211.85;;;74.50;;
14066;SDS011;7108;42.684;23.350;2023-02-11T14:52:43;258.98;;;78.47;;
14066;SDS011;7108;42.684;23.350;2023-02-11T14:55:14;248.03;;;76.90;;
14066;SDS011;7108;42.684;23.350;2023-02-11T14:57:47;262.20;;;79.07;;
14066;SDS011;7108;42.684;23.350;2023-02-11T15:03:24;267.45;;;81.25;;
14066;SDS011;7108;42.684;23.350;2023-02-11T15:08:27;236.90;;;79.70;;
14066;SDS011;7108;42.684;23.350;2023-02-11T15:10:54;241.65;;;76.97;;
14066;SDS011;7108;42.684;23.350;2023-02-11T15:13:22;245.25;;;78.68;;
14066;SDS011;7108;42.684;23.350;2023-02-11T15:15:53;230.68;;;76.35;;
14066;SDS011;7108;42.684;23.350;2023-02-11T15:18:22;238.43;;;76.88;;
14066;SDS011;7108;42.684;23.350;2023-02-11T15:20:55;215.60;;;75.03;;
14066;SDS011;7108;42.684;23.350;2023-02-11T15:23:22;216.67;;;74.90;;
14066;SDS011;7108;42.684;23.350;2023-02-11T15:25:51;231.23;;;75.70;;
14066;SDS011;7108;42.684;23.350;2023-02-11T15:28:22;241.57;;;76.82;;
14066;SDS011;7108;42.684;23.350;2023-02-11T15:33:47;249.77;;;77.13;;
14066;SDS011;7108;42.684;23.350;2023-02-11T15:36:13;244.77;;;78.07;;
14066;SDS011;7108;42.684;23.350;2023-02-11T15:38:40;250.20;;;77.88;;
14066;SDS011;7108;42.684;23.350;2023-02-11T15:41:06;247.73;;;80.73;;
14066;SDS011;7108;42.684;23.350;2023-02-11T15:43:45;216.73;;;73.55;;
14066;SDS011;7108;42.684;23.350;2023-02-11T15:46:21;257.33;;;77.82;;
14066;SDS011;7108;42.684;23.350;2023-02-11T15:48:48;238.30;;;77.15;;
14066;SDS011;7108;42.684;23.350;2023-02-11T15:51:23;272.02;;;82.53;;
14066;SDS011;7108;42.684;23.350;2023-02-11T15:53:57;241.90;;;77.07;;
14066;SDS011;7108;42.684;23.350;2023-02-11T15:56:40;235.75;;;74.50;;
14066;SDS011;7108;42.684;23.350;2023-02-11T15:59:15;230.90;;;78.25;;
14066;SDS011;7108;42.684;23.350;2023-02-11T16:01:43;253.90;;;78.72;;
14066;SDS011;7108;42.684;23.350;2023-02-11T16:04:16;245.50;;;78.28;;
14066;SDS011;7108;42.684;23.350;2023-02-11T16:06:44;250.35;;;80.32;;
14066;SDS011;7108;42.684;23.350;2023-02-11T16:19:45;248.25;;;79.95;;
14066;SDS011;7108;42.684;23.350;2023-02-11T16:22:17;238.75;;;78.07;;
14066;SDS011;7108;42.684;23.350;2023-02-11T16:24:47;271.35;;;84.15;;
14066;SDS011;7108;42.684;23.350;2023-02-11T16:27:21;269.58;;;84.00;;
14066;SDS011;7108;42.684;23.350;2023-02-11T16:29:51;238.52;;;79.70;;
14066;SDS011;7108;42.684;23.350;2023-02-11T16:34:47;241.07;;;76.68;;
14066;SDS011;7108;42.684;23.350;2023-02-11T16:37:12;255.73;;;80.37;;
14066;SDS011;7108;42.684;23.350;2023-02-11T16:39:38;243.80;;;77.73;;
14066;SDS011;7108;42.684;23.350;2023-02-11T16:42:04;203.53;;;72.77;;
14066;SDS011;7108;42.684;23.350;2023-02-11T16:44:33;212.40;;;74.88;;
14066;SDS011;7108;42.684;23.350;2023-02-11T16:46:59;215.60;;;75.03;;
14066;SDS011;7108;42.684;23.350;2023-02-11T16:49:44;235.10;;;77.40;;
14066;SDS011;7108;42.684;23.350;2023-02-11T16:52:14;248.57;;;81.20;;
14066;SDS011;7108;42.684;23.350;2023-02-11T16:54:41;248.43;;;77.90;;
14066;SDS011;7108;42.684;23.350;2023-02-11T16:57:17;236.60;;;78.47;;
14066;SDS011;7108;42.684;23.350;2023-02-11T16:59:44;233.20;;;77.82;;
14066;SDS011;7108;42.684;23.350;2023-02-11T17:02:15;254.53;;;80.60;;
14066;SDS011;7108;42.684;23.350;2023-02-11T17:04:46;242.32;;;78.60;;